sensor_id;sensor_type;location;lat;lon;timestamp;pressure;altitude;pressure_sealevel;temperature
19282;BMP180;9774;52.034;5.342;2023-06-19T00:02:13;100661.00;;;28.60
19282;BMP180;9774;52.034;5.342;2023-06-19T00:04:42;100659.00;;;28.60
19282;BMP180;9774;52.034;5.342;2023-06-19T00:07:09;100667.00;;;28.60
19282;BMP180;9774;52.034;5.342;2023-06-19T00:09:37;100659.00;;;28.60
19282;BMP180;9774;52.034;5.342;2023-06-19T00:12:05;100657.00;;;28.60
19282;BMP180;9774;52.034;5.342;2023-06-19T00:14:33;100656.00;;;28.50
19282;BMP180;9774;52.034;5.342;2023-06-19T00:17:02;100655.00;;;28.50
19282;BMP180;9774;52.034;5.342;2023-06-19T00:19:29;100657.00;;;28.50
19282;BMP180;9774;52.034;5.342;2023-06-19T00:21:58;100658.00;;;28.50
19282;BMP180;9774;52.034;5.342;2023-06-19T00:24:26;100658.00;;;28.50
19282;BMP180;9774;52.034;5.342;2023-06-19T00:26:53;100664.00;;;28.50
19282;BMP180;9774;52.034;5.342;2023-06-19T00:29:21;100660.00;;;28.50
19282;BMP180;9774;52.034;5.342;2023-06-19T00:31:54;100666.00;;;28.50
19282;BMP180;9774;52.034;5.342;2023-06-19T00:34:21;100666.00;;;28.50
19282;BMP180;9774;52.034;5.342;2023-06-19T00:36:50;100663.00;;;28.50
19282;BMP180;9774;52.034;5.342;2023-06-19T00:39:22;100674.00;;;28.40
19282;BMP180;9774;52.034;5.342;2023-06-19T00:41:51;100681.00;;;28.40
19282;BMP180;9774;52.034;5.342;2023-06-19T00:44:18;100684.00;;;28.40
19282;BMP180;9774;52.034;5.342;2023-06-19T00:46:45;100686.00;;;28.30
19282;BMP180;9774;52.034;5.342;2023-06-19T00:49:14;100679.00;;;28.30
19282;BMP180;9774;52.034;5.342;2023-06-19T00:51:41;100696.00;;;28.30
19282;BMP180;9774;52.034;5.342;2023-06-19T00:54:09;100685.00;;;28.20
19282;BMP180;9774;52.034;5.342;2023-06-19T00:56:38;100682.00;;;28.20
19282;BMP180;9774;52.034;5.342;2023-06-19T00:59:08;100691.00;;;28.10
19282;BMP180;9774;52.034;5.342;2023-06-19T01:01:38;100697.00;;;28.10
19282;BMP180;9774;52.034;5.342;2023-06-19T01:04:05;100696.00;;;28.10
19282;BMP180;9774;52.034;5.342;2023-06-19T01:06:40;100704.00;;;28.00
19282;BMP180;9774;52.034;5.342;2023-06-19T01:09:14;100704.00;;;27.90
19282;BMP180;9774;52.034;5.342;2023-06-19T01:11:48;100706.00;;;27.90
19282;BMP180;9774;52.034;5.342;2023-06-19T01:14:21;100709.00;;;27.90
19282;BMP180;9774;52.034;5.342;2023-06-19T01:16:49;100711.00;;;27.80
19282;BMP180;9774;52.034;5.342;2023-06-19T01:19:19;100712.00;;;27.80
19282;BMP180;9774;52.034;5.342;2023-06-19T01:21:47;100722.00;;;27.80
19282;BMP180;9774;52.034;5.342;2023-06-19T01:24:16;100726.00;;;27.70
19282;BMP180;9774;52.034;5.342;2023-06-19T01:26:43;100729.00;;;27.70
19282;BMP180;9774;52.034;5.342;2023-06-19T01:29:13;100735.00;;;27.60
19282;BMP180;9774;52.034;5.342;2023-06-19T01:31:48;100730.00;;;27.50
19282;BMP180;9774;52.034;5.342;2023-06-19T01:34:19;100733.00;;;27.50
19282;BMP180;9774;52.034;5.342;2023-06-19T01:36:49;100732.00;;;27.50
19282;BMP180;9774;52.034;5.342;2023-06-19T01:39:18;100729.00;;;27.40
19282;BMP180;9774;52.034;5.342;2023-06-19T01:41:47;100735.00;;;27.40
19282;BMP180;9774;52.034;5.342;2023-06-19T01:44:14;100728.00;;;27.30
19282;BMP180;9774;52.034;5.342;2023-06-19T01:46:42;100731.00;;;27.30
19282;BMP180;9774;52.034;5.342;2023-06-19T01:49:09;100727.00;;;27.30
19282;BMP180;9774;52.034;5.342;2023-06-19T01:51:37;100731.00;;;27.30
19282;BMP180;9774;52.034;5.342;2023-06-19T01:54:04;100734.00;;;27.30
19282;BMP180;9774;52.034;5.342;2023-06-19T01:56:34;100734.00;;;27.20
19282;BMP180;9774;52.034;5.342;2023-06-19T01:59:01;100736.00;;;27.20
19282;BMP180;9774;52.034;5.342;2023-06-19T02:01:29;100744.00;;;27.20
19282;BMP180;9774;52.034;5.342;2023-06-19T02:03:56;100741.00;;;27.20
19282;BMP180;9774;52.034;5.342;2023-06-19T02:06:23;100738.00;;;27.20
19282;BMP180;9774;52.034;5.342;2023-06-19T02:08:50;100740.00;;;27.10
19282;BMP180;9774;52.034;5.342;2023-06-19T02:11:18;100737.00;;;27.10
19282;BMP180;9774;52.034;5.342;2023-06-19T02:13:47;100731.00;;;27.10
19282;BMP180;9774;52.034;5.342;2023-06-19T02:16:14;100747.00;;;27.10
19282;BMP180;9774;52.034;5.342;2023-06-19T02:18:41;100746.00;;;27.00
19282;BMP180;9774;52.034;5.342;2023-06-19T02:21:09;100745.00;;;27.00
19282;BMP180;9774;52.034;5.342;2023-06-19T02:23:36;100750.00;;;27.00
19282;BMP180;9774;52.034;5.342;2023-06-19T02:26:03;100747.00;;;27.00
19282;BMP180;9774;52.034;5.342;2023-06-19T02:28:31;100749.00;;;27.00
19282;BMP180;9774;52.034;5.342;2023-06-19T02:30:59;100751.00;;;26.90
19282;BMP180;9774;52.034;5.342;2023-06-19T02:33:27;100750.00;;;26.90
19282;BMP180;9774;52.034;5.342;2023-06-19T02:35:54;100747.00;;;26.90
19282;BMP180;9774;52.034;5.342;2023-06-19T02:38:24;100739.00;;;26.90
19282;BMP180;9774;52.034;5.342;2023-06-19T02:40:52;100750.00;;;26.90
19282;BMP180;9774;52.034;5.342;2023-06-19T02:43:19;100746.00;;;26.90
19282;BMP180;9774;52.034;5.342;2023-06-19T02:45:47;100761.00;;;26.90
19282;BMP180;9774;52.034;5.342;2023-06-19T02:48:15;100764.00;;;26.90
19282;BMP180;9774;52.034;5.342;2023-06-19T02:50:42;100777.00;;;26.90
19282;BMP180;9774;52.034;5.342;2023-06-19T02:53:10;100767.00;;;26.90
19282;BMP180;9774;52.034;5.342;2023-06-19T02:55:37;100770.00;;;26.90
19282;BMP180;9774;52.034;5.342;2023-06-19T02:58:04;100775.00;;;26.90
19282;BMP180;9774;52.034;5.342;2023-06-19T03:00:32;100774.00;;;26.90
19282;BMP180;9774;52.034;5.342;2023-06-19T03:02:59;100772.00;;;26.80
19282;BMP180;9774;52.034;5.342;2023-06-19T03:05:28;100773.00;;;26.80
19282;BMP180;9774;52.034;5.342;2023-06-19T03:07:55;100773.00;;;26.80
19282;BMP180;9774;52.034;5.342;2023-06-19T03:10:22;100768.00;;;26.80
19282;BMP180;9774;52.034;5.342;2023-06-19T03:12:50;100765.00;;;26.80
19282;BMP180;9774;52.034;5.342;2023-06-19T03:15:17;100767.00;;;26.80
19282;BMP180;9774;52.034;5.342;2023-06-19T03:17:44;100771.00;;;26.80
19282;BMP180;9774;52.034;5.342;2023-06-19T03:20:12;100768.00;;;26.80
19282;BMP180;9774;52.034;5.342;2023-06-19T03:22:42;100779.00;;;26.80
19282;BMP180;9774;52.034;5.342;2023-06-19T03:25:09;100776.00;;;26.80
19282;BMP180;9774;52.034;5.342;2023-06-19T03:27:37;100776.00;;;26.80
19282;BMP180;9774;52.034;5.342;2023-06-19T03:30:05;100782.00;;;26.70
19282;BMP180;9774;52.034;5.342;2023-06-19T03:32:34;100779.00;;;26.70
19282;BMP180;9774;52.034;5.342;2023-06-19T03:35:02;100782.00;;;26.70
19282;BMP180;9774;52.034;5.342;2023-06-19T03:37:31;100787.00;;;26.70
19282;BMP180;9774;52.034;5.342;2023-06-19T03:40:00;100794.00;;;26.70
19282;BMP180;9774;52.034;5.342;2023-06-19T03:42:29;100805.00;;;26.60
19282;BMP180;9774;52.034;5.342;2023-06-19T03:44:56;100801.00;;;26.60
19282;BMP180;9774;52.034;5.342;2023-06-19T03:47:23;100808.00;;;26.60
19282;BMP180;9774;52.034;5.342;2023-06-19T03:49:51;100807.00;;;26.60
19282;BMP180;9774;52.034;5.342;2023-06-19T03:52:18;100814.00;;;26.60
19282;BMP180;9774;52.034;5.342;2023-06-19T03:54:45;100806.00;;;26.50
19282;BMP180;9774;52.034;5.342;2023-06-19T03:57:14;100824.00;;;26.50
19282;BMP180;9774;52.034;5.342;2023-06-19T03:59:42;100827.00;;;26.50
19282;BMP180;9774;52.034;5.342;2023-06-19T04:02:09;100836.00;;;26.50
19282;BMP180;9774;52.034;5.342;2023-06-19T04:04:36;100836.00;;;26.40
19282;BMP180;9774;52.034;5.342;2023-06-19T04:07:04;100826.00;;;26.40
19282;BMP180;9774;52.034;5.342;2023-06-19T04:09:32;100830.00;;;26.40
19282;BMP180;9774;52.034;5.342;2023-06-19T04:11:59;100838.00;;;26.40
19282;BMP180;9774;52.034;5.342;2023-06-19T04:14:28;100834.00;;;26.30
19282;BMP180;9774;52.034;5.342;2023-06-19T04:16:55;100844.00;;;26.30
19282;BMP180;9774;52.034;5.342;2023-06-19T04:19:22;100853.00;;;26.30
19282;BMP180;9774;52.034;5.342;2023-06-19T04:21:50;100851.00;;;26.30
19282;BMP180;9774;52.034;5.342;2023-06-19T04:24:17;100845.00;;;26.30
19282;BMP180;9774;52.034;5.342;2023-06-19T04:26:44;100857.00;;;26.20
19282;BMP180;9774;52.034;5.342;2023-06-19T04:29:11;100861.00;;;26.20
19282;BMP180;9774;52.034;5.342;2023-06-19T04:31:44;100859.00;;;26.20
19282;BMP180;9774;52.034;5.342;2023-06-19T04:34:13;100866.00;;;26.20
19282;BMP180;9774;52.034;5.342;2023-06-19T04:36:41;100872.00;;;26.10
19282;BMP180;9774;52.034;5.342;2023-06-19T04:39:08;100876.00;;;26.10
19282;BMP180;9774;52.034;5.342;2023-06-19T04:41:36;100870.00;;;26.10
19282;BMP180;9774;52.034;5.342;2023-06-19T04:44:04;100872.00;;;26.10
19282;BMP180;9774;52.034;5.342;2023-06-19T04:46:32;100875.00;;;26.10
19282;BMP180;9774;52.034;5.342;2023-06-19T04:49:00;100879.00;;;26.00
19282;BMP180;9774;52.034;5.342;2023-06-19T04:51:30;100879.00;;;26.00
19282;BMP180;9774;52.034;5.342;2023-06-19T04:53:58;100875.00;;;26.00
19282;BMP180;9774;52.034;5.342;2023-06-19T04:56:25;100872.00;;;26.00
19282;BMP180;9774;52.034;5.342;2023-06-19T04:58:53;100874.00;;;26.10
19282;BMP180;9774;52.034;5.342;2023-06-19T05:01:23;100882.00;;;26.10
19282;BMP180;9774;52.034;5.342;2023-06-19T05:03:54;100882.00;;;26.10
19282;BMP180;9774;52.034;5.342;2023-06-19T05:06:23;100881.00;;;26.10
19282;BMP180;9774;52.034;5.342;2023-06-19T05:08:51;100888.00;;;26.10
19282;BMP180;9774;52.034;5.342;2023-06-19T05:11:18;100890.00;;;26.10
19282;BMP180;9774;52.034;5.342;2023-06-19T05:13:45;100900.00;;;26.10
19282;BMP180;9774;52.034;5.342;2023-06-19T05:16:13;100897.00;;;26.10
19282;BMP180;9774;52.034;5.342;2023-06-19T05:18:42;100896.00;;;26.10
19282;BMP180;9774;52.034;5.342;2023-06-19T05:21:10;100895.00;;;26.10
19282;BMP180;9774;52.034;5.342;2023-06-19T05:23:40;100898.00;;;26.10
19282;BMP180;9774;52.034;5.342;2023-06-19T05:26:07;100906.00;;;26.10
19282;BMP180;9774;52.034;5.342;2023-06-19T05:28:34;100905.00;;;26.10
19282;BMP180;9774;52.034;5.342;2023-06-19T05:31:02;100910.00;;;26.10
19282;BMP180;9774;52.034;5.342;2023-06-19T05:33:30;100914.00;;;26.10
19282;BMP180;9774;52.034;5.342;2023-06-19T05:35:58;100907.00;;;26.00
19282;BMP180;9774;52.034;5.342;2023-06-19T05:38:25;100917.00;;;26.00
19282;BMP180;9774;52.034;5.342;2023-06-19T05:40:55;100919.00;;;26.00
19282;BMP180;9774;52.034;5.342;2023-06-19T05:43:23;100918.00;;;26.00
19282;BMP180;9774;52.034;5.342;2023-06-19T05:45:52;100923.00;;;26.00
19282;BMP180;9774;52.034;5.342;2023-06-19T05:48:20;100924.00;;;26.00
19282;BMP180;9774;52.034;5.342;2023-06-19T05:50:47;100919.00;;;26.00
19282;BMP180;9774;52.034;5.342;2023-06-19T05:53:14;100924.00;;;26.00
19282;BMP180;9774;52.034;5.342;2023-06-19T05:55:42;100924.00;;;26.00
19282;BMP180;9774;52.034;5.342;2023-06-19T05:58:11;100928.00;;;26.00
19282;BMP180;9774;52.034;5.342;2023-06-19T06:00:38;100927.00;;;26.00
19282;BMP180;9774;52.034;5.342;2023-06-19T06:03:07;100939.00;;;26.00
19282;BMP180;9774;52.034;5.342;2023-06-19T06:05:34;100943.00;;;26.00
19282;BMP180;9774;52.034;5.342;2023-06-19T06:08:02;100950.00;;;26.00
19282;BMP180;9774;52.034;5.342;2023-06-19T06:10:30;100943.00;;;26.00
19282;BMP180;9774;52.034;5.342;2023-06-19T06:12:57;100944.00;;;26.00
19282;BMP180;9774;52.034;5.342;2023-06-19T06:15:26;100955.00;;;26.00
19282;BMP180;9774;52.034;5.342;2023-06-19T06:17:54;100964.00;;;26.00
19282;BMP180;9774;52.034;5.342;2023-06-19T06:20:21;100964.00;;;26.00
19282;BMP180;9774;52.034;5.342;2023-06-19T06:22:49;100963.00;;;26.10
19282;BMP180;9774;52.034;5.342;2023-06-19T06:25:16;100969.00;;;26.10
19282;BMP180;9774;52.034;5.342;2023-06-19T06:27:44;100971.00;;;26.10
19282;BMP180;9774;52.034;5.342;2023-06-19T06:30:13;100974.00;;;26.10
19282;BMP180;9774;52.034;5.342;2023-06-19T06:32:41;100985.00;;;26.10
19282;BMP180;9774;52.034;5.342;2023-06-19T06:35:09;100986.00;;;26.20
19282;BMP180;9774;52.034;5.342;2023-06-19T06:37:36;100985.00;;;26.20
19282;BMP180;9774;52.034;5.342;2023-06-19T06:40:05;100985.00;;;26.20
19282;BMP180;9774;52.034;5.342;2023-06-19T06:42:35;100979.00;;;26.20
19282;BMP180;9774;52.034;5.342;2023-06-19T06:45:03;100976.00;;;26.30
19282;BMP180;9774;52.034;5.342;2023-06-19T06:47:31;100984.00;;;26.30
19282;BMP180;9774;52.034;5.342;2023-06-19T06:49:59;100997.00;;;26.30
19282;BMP180;9774;52.034;5.342;2023-06-19T06:52:27;101002.00;;;26.30
19282;BMP180;9774;52.034;5.342;2023-06-19T06:54:56;101004.00;;;26.40
19282;BMP180;9774;52.034;5.342;2023-06-19T06:57:23;100995.00;;;26.40
19282;BMP180;9774;52.034;5.342;2023-06-19T06:59:51;101012.00;;;26.40
19282;BMP180;9774;52.034;5.342;2023-06-19T07:02:18;101016.00;;;26.40
19282;BMP180;9774;52.034;5.342;2023-06-19T07:04:46;101021.00;;;26.40
19282;BMP180;9774;52.034;5.342;2023-06-19T07:07:14;101019.00;;;26.40
19282;BMP180;9774;52.034;5.342;2023-06-19T07:09:42;101019.00;;;26.50
19282;BMP180;9774;52.034;5.342;2023-06-19T07:12:09;101027.00;;;26.50
19282;BMP180;9774;52.034;5.342;2023-06-19T07:14:37;101031.00;;;26.60
19282;BMP180;9774;52.034;5.342;2023-06-19T07:17:04;101032.00;;;26.60
19282;BMP180;9774;52.034;5.342;2023-06-19T07:19:33;101037.00;;;26.60
19282;BMP180;9774;52.034;5.342;2023-06-19T07:22:00;101050.00;;;26.60
19282;BMP180;9774;52.034;5.342;2023-06-19T07:24:29;101056.00;;;26.60
19282;BMP180;9774;52.034;5.342;2023-06-19T07:26:56;101053.00;;;26.60
19282;BMP180;9774;52.034;5.342;2023-06-19T07:29:24;101063.00;;;26.60
19282;BMP180;9774;52.034;5.342;2023-06-19T07:31:53;101067.00;;;26.60
19282;BMP180;9774;52.034;5.342;2023-06-19T07:34:20;101063.00;;;26.60
19282;BMP180;9774;52.034;5.342;2023-06-19T07:36:47;101064.00;;;26.60
19282;BMP180;9774;52.034;5.342;2023-06-19T07:39:15;101061.00;;;26.50
19282;BMP180;9774;52.034;5.342;2023-06-19T07:41:43;101058.00;;;26.50
19282;BMP180;9774;52.034;5.342;2023-06-19T07:44:11;101063.00;;;26.50
19282;BMP180;9774;52.034;5.342;2023-06-19T07:46:39;101067.00;;;26.50
19282;BMP180;9774;52.034;5.342;2023-06-19T07:49:06;101077.00;;;26.50
19282;BMP180;9774;52.034;5.342;2023-06-19T07:51:34;101077.00;;;26.50
19282;BMP180;9774;52.034;5.342;2023-06-19T07:54:02;101084.00;;;26.50
19282;BMP180;9774;52.034;5.342;2023-06-19T07:56:29;101087.00;;;26.50
19282;BMP180;9774;52.034;5.342;2023-06-19T07:58:59;101085.00;;;26.50
19282;BMP180;9774;52.034;5.342;2023-06-19T08:01:26;101083.00;;;26.60
19282;BMP180;9774;52.034;5.342;2023-06-19T08:03:53;101090.00;;;26.60
19282;BMP180;9774;52.034;5.342;2023-06-19T08:06:20;101084.00;;;26.60
19282;BMP180;9774;52.034;5.342;2023-06-19T08:08:48;101087.00;;;26.70
19282;BMP180;9774;52.034;5.342;2023-06-19T08:11:15;101096.00;;;26.80
19282;BMP180;9774;52.034;5.342;2023-06-19T08:13:42;101087.00;;;26.80
19282;BMP180;9774;52.034;5.342;2023-06-19T08:16:11;101099.00;;;26.80
19282;BMP180;9774;52.034;5.342;2023-06-19T08:18:38;101100.00;;;26.80
19282;BMP180;9774;52.034;5.342;2023-06-19T08:21:06;101096.00;;;26.90
19282;BMP180;9774;52.034;5.342;2023-06-19T08:23:33;101101.00;;;26.90
19282;BMP180;9774;52.034;5.342;2023-06-19T08:26:01;101107.00;;;27.00
19282;BMP180;9774;52.034;5.342;2023-06-19T08:28:28;101107.00;;;27.00
19282;BMP180;9774;52.034;5.342;2023-06-19T08:30:55;101120.00;;;27.00
19282;BMP180;9774;52.034;5.342;2023-06-19T08:33:24;101118.00;;;27.00
19282;BMP180;9774;52.034;5.342;2023-06-19T08:35:52;101121.00;;;27.00
19282;BMP180;9774;52.034;5.342;2023-06-19T08:38:19;101123.00;;;27.10
19282;BMP180;9774;52.034;5.342;2023-06-19T08:40:47;101131.00;;;27.10
19282;BMP180;9774;52.034;5.342;2023-06-19T08:43:16;101137.00;;;27.20
19282;BMP180;9774;52.034;5.342;2023-06-19T08:45:43;101138.00;;;27.20
19282;BMP180;9774;52.034;5.342;2023-06-19T08:48:14;101141.00;;;27.20
19282;BMP180;9774;52.034;5.342;2023-06-19T08:50:42;101146.00;;;27.20
19282;BMP180;9774;52.034;5.342;2023-06-19T08:53:11;101155.00;;;27.20
19282;BMP180;9774;52.034;5.342;2023-06-19T08:55:38;101148.00;;;27.20
19282;BMP180;9774;52.034;5.342;2023-06-19T08:58:05;101136.00;;;27.20
19282;BMP180;9774;52.034;5.342;2023-06-19T09:00:33;101125.00;;;27.20
19282;BMP180;9774;52.034;5.342;2023-06-19T09:03:01;101140.00;;;27.20
19282;BMP180;9774;52.034;5.342;2023-06-19T09:05:30;101142.00;;;27.30
19282;BMP180;9774;52.034;5.342;2023-06-19T09:08:00;101137.00;;;27.30
19282;BMP180;9774;52.034;5.342;2023-06-19T09:10:28;101145.00;;;27.30
19282;BMP180;9774;52.034;5.342;2023-06-19T09:12:59;101158.00;;;27.30
19282;BMP180;9774;52.034;5.342;2023-06-19T09:15:28;101156.00;;;27.40
19282;BMP180;9774;52.034;5.342;2023-06-19T09:18:07;101148.00;;;27.40
19282;BMP180;9774;52.034;5.342;2023-06-19T09:20:37;101167.00;;;27.40
19282;BMP180;9774;52.034;5.342;2023-06-19T09:23:09;101160.00;;;27.50
19282;BMP180;9774;52.034;5.342;2023-06-19T09:25:45;101161.00;;;27.40
19282;BMP180;9774;52.034;5.342;2023-06-19T09:28:18;101164.00;;;27.50
19282;BMP180;9774;52.034;5.342;2023-06-19T09:30:55;101164.00;;;27.50
19282;BMP180;9774;52.034;5.342;2023-06-19T09:33:24;101178.00;;;27.60
19282;BMP180;9774;52.034;5.342;2023-06-19T09:35:53;101168.00;;;27.60
19282;BMP180;9774;52.034;5.342;2023-06-19T09:38:24;101178.00;;;27.70
19282;BMP180;9774;52.034;5.342;2023-06-19T09:40:53;101182.00;;;27.90
19282;BMP180;9774;52.034;5.342;2023-06-19T09:43:24;101185.00;;;28.00
19282;BMP180;9774;52.034;5.342;2023-06-19T09:45:55;101193.00;;;28.10
19282;BMP180;9774;52.034;5.342;2023-06-19T09:48:27;101197.00;;;28.20
19282;BMP180;9774;52.034;5.342;2023-06-19T09:51:02;101195.00;;;28.20
19282;BMP180;9774;52.034;5.342;2023-06-19T09:53:31;101200.00;;;28.30
19282;BMP180;9774;52.034;5.342;2023-06-19T09:55:59;101199.00;;;28.40
19282;BMP180;9774;52.034;5.342;2023-06-19T09:58:27;101203.00;;;28.40
19282;BMP180;9774;52.034;5.342;2023-06-19T10:00:55;101206.00;;;28.50
19282;BMP180;9774;52.034;5.342;2023-06-19T10:03:30;101204.00;;;28.50
19282;BMP180;9774;52.034;5.342;2023-06-19T10:05:59;101203.00;;;28.70
19282;BMP180;9774;52.034;5.342;2023-06-19T10:08:38;101196.00;;;28.80
19282;BMP180;9774;52.034;5.342;2023-06-19T10:11:06;101204.00;;;28.90
19282;BMP180;9774;52.034;5.342;2023-06-19T10:13:34;101200.00;;;29.10
19282;BMP180;9774;52.034;5.342;2023-06-19T10:16:02;101194.00;;;29.10
19282;BMP180;9774;52.034;5.342;2023-06-19T10:18:32;101204.00;;;29.20
19282;BMP180;9774;52.034;5.342;2023-06-19T10:20:59;101206.00;;;29.20
19282;BMP180;9774;52.034;5.342;2023-06-19T10:23:27;101201.00;;;29.30
19282;BMP180;9774;52.034;5.342;2023-06-19T10:26:00;101200.00;;;29.30
19282;BMP180;9774;52.034;5.342;2023-06-19T10:28:31;101201.00;;;29.40
19282;BMP180;9774;52.034;5.342;2023-06-19T10:31:00;101208.00;;;29.40
19282;BMP180;9774;52.034;5.342;2023-06-19T10:33:29;101201.00;;;29.50
19282;BMP180;9774;52.034;5.342;2023-06-19T10:35:56;101215.00;;;29.60
19282;BMP180;9774;52.034;5.342;2023-06-19T10:38:26;101206.00;;;29.60
19282;BMP180;9774;52.034;5.342;2023-06-19T10:40:53;101213.00;;;29.70
19282;BMP180;9774;52.034;5.342;2023-06-19T10:43:23;101205.00;;;29.80
19282;BMP180;9774;52.034;5.342;2023-06-19T10:45:54;101202.00;;;29.90
19282;BMP180;9774;52.034;5.342;2023-06-19T10:48:22;101203.00;;;29.90
19282;BMP180;9774;52.034;5.342;2023-06-19T10:50:50;101191.00;;;29.90
19282;BMP180;9774;52.034;5.342;2023-06-19T10:53:25;101188.00;;;29.90
19282;BMP180;9774;52.034;5.342;2023-06-19T10:55:55;101203.00;;;30.00
19282;BMP180;9774;52.034;5.342;2023-06-19T10:58:24;101194.00;;;30.10
19282;BMP180;9774;52.034;5.342;2023-06-19T11:00:52;101186.00;;;30.20
19282;BMP180;9774;52.034;5.342;2023-06-19T11:03:20;101196.00;;;30.20
19282;BMP180;9774;52.034;5.342;2023-06-19T11:05:48;101197.00;;;30.30
19282;BMP180;9774;52.034;5.342;2023-06-19T11:08:18;101193.00;;;30.30
19282;BMP180;9774;52.034;5.342;2023-06-19T11:10:46;101204.00;;;30.40
19282;BMP180;9774;52.034;5.342;2023-06-19T11:13:15;101197.00;;;30.40
19282;BMP180;9774;52.034;5.342;2023-06-19T11:15:44;101188.00;;;30.40
19282;BMP180;9774;52.034;5.342;2023-06-19T11:18:14;101191.00;;;30.40
19282;BMP180;9774;52.034;5.342;2023-06-19T11:20:45;101195.00;;;30.40
19282;BMP180;9774;52.034;5.342;2023-06-19T11:23:14;101197.00;;;30.40
19282;BMP180;9774;52.034;5.342;2023-06-19T11:25:42;101202.00;;;30.40
19282;BMP180;9774;52.034;5.342;2023-06-19T11:28:13;101204.00;;;30.40
19282;BMP180;9774;52.034;5.342;2023-06-19T11:30:43;101193.00;;;30.40
19282;BMP180;9774;52.034;5.342;2023-06-19T11:33:18;101195.00;;;30.40
19282;BMP180;9774;52.034;5.342;2023-06-19T11:35:48;101196.00;;;30.50
19282;BMP180;9774;52.034;5.342;2023-06-19T11:38:19;101195.00;;;30.50
19282;BMP180;9774;52.034;5.342;2023-06-19T11:40:47;101186.00;;;30.50
19282;BMP180;9774;52.034;5.342;2023-06-19T11:43:24;101202.00;;;30.50
19282;BMP180;9774;52.034;5.342;2023-06-19T11:45:59;101201.00;;;30.50
19282;BMP180;9774;52.034;5.342;2023-06-19T11:48:28;101207.00;;;30.60
19282;BMP180;9774;52.034;5.342;2023-06-19T11:50:55;101217.00;;;30.70
19282;BMP180;9774;52.034;5.342;2023-06-19T11:53:24;101203.00;;;30.70
19282;BMP180;9774;52.034;5.342;2023-06-19T11:55:51;101202.00;;;30.70
19282;BMP180;9774;52.034;5.342;2023-06-19T11:58:19;101195.00;;;30.80
19282;BMP180;9774;52.034;5.342;2023-06-19T12:00:47;101195.00;;;30.90
19282;BMP180;9774;52.034;5.342;2023-06-19T12:03:17;101205.00;;;30.90
19282;BMP180;9774;52.034;5.342;2023-06-19T12:05:44;101204.00;;;31.00
19282;BMP180;9774;52.034;5.342;2023-06-19T12:08:11;101201.00;;;31.00
19282;BMP180;9774;52.034;5.342;2023-06-19T12:10:38;101210.00;;;31.10
19282;BMP180;9774;52.034;5.342;2023-06-19T12:13:06;101198.00;;;31.10
19282;BMP180;9774;52.034;5.342;2023-06-19T12:15:33;101201.00;;;31.20
19282;BMP180;9774;52.034;5.342;2023-06-19T12:18:00;101202.00;;;31.20
19282;BMP180;9774;52.034;5.342;2023-06-19T12:20:30;101211.00;;;31.20
19282;BMP180;9774;52.034;5.342;2023-06-19T12:22:57;101202.00;;;31.20
19282;BMP180;9774;52.034;5.342;2023-06-19T12:25:25;101198.00;;;31.30
19282;BMP180;9774;52.034;5.342;2023-06-19T12:27:52;101209.00;;;31.30
19282;BMP180;9774;52.034;5.342;2023-06-19T12:30:19;101200.00;;;31.30
19282;BMP180;9774;52.034;5.342;2023-06-19T12:32:47;101205.00;;;31.30
19282;BMP180;9774;52.034;5.342;2023-06-19T12:35:15;101213.00;;;31.30
19282;BMP180;9774;52.034;5.342;2023-06-19T12:37:45;101208.00;;;31.30
19282;BMP180;9774;52.034;5.342;2023-06-19T12:40:13;101215.00;;;31.40
19282;BMP180;9774;52.034;5.342;2023-06-19T12:42:40;101216.00;;;31.40
19282;BMP180;9774;52.034;5.342;2023-06-19T12:45:08;101216.00;;;31.40
19282;BMP180;9774;52.034;5.342;2023-06-19T12:47:36;101212.00;;;31.40
19282;BMP180;9774;52.034;5.342;2023-06-19T12:50:04;101210.00;;;31.40
19282;BMP180;9774;52.034;5.342;2023-06-19T12:52:31;101215.00;;;31.50
19282;BMP180;9774;52.034;5.342;2023-06-19T12:55:00;101215.00;;;31.50
19282;BMP180;9774;52.034;5.342;2023-06-19T12:57:28;101217.00;;;31.50
19282;BMP180;9774;52.034;5.342;2023-06-19T12:59:55;101211.00;;;31.50
19282;BMP180;9774;52.034;5.342;2023-06-19T13:02:22;101214.00;;;31.40
19282;BMP180;9774;52.034;5.342;2023-06-19T13:04:50;101202.00;;;31.40
19282;BMP180;9774;52.034;5.342;2023-06-19T13:07:17;101208.00;;;31.40
19282;BMP180;9774;52.034;5.342;2023-06-19T13:09:45;101199.00;;;31.40
19282;BMP180;9774;52.034;5.342;2023-06-19T13:12:15;101198.00;;;31.30
19282;BMP180;9774;52.034;5.342;2023-06-19T13:14:43;101209.00;;;31.40
19282;BMP180;9774;52.034;5.342;2023-06-19T13:17:10;101202.00;;;31.40
19282;BMP180;9774;52.034;5.342;2023-06-19T13:19:37;101199.00;;;31.30
19282;BMP180;9774;52.034;5.342;2023-06-19T13:22:05;101192.00;;;31.30
19282;BMP180;9774;52.034;5.342;2023-06-19T13:24:32;101195.00;;;31.30
19282;BMP180;9774;52.034;5.342;2023-06-19T13:26:59;101198.00;;;31.30
19282;BMP180;9774;52.034;5.342;2023-06-19T13:29:29;101203.00;;;31.30
19282;BMP180;9774;52.034;5.342;2023-06-19T13:31:56;101204.00;;;31.30
19282;BMP180;9774;52.034;5.342;2023-06-19T13:34:23;101198.00;;;31.30
19282;BMP180;9774;52.034;5.342;2023-06-19T13:36:51;101195.00;;;31.40
19282;BMP180;9774;52.034;5.342;2023-06-19T13:39:18;101200.00;;;31.40
19282;BMP180;9774;52.034;5.342;2023-06-19T13:41:46;101195.00;;;31.40
19282;BMP180;9774;52.034;5.342;2023-06-19T13:44:14;101190.00;;;31.40
19282;BMP180;9774;52.034;5.342;2023-06-19T13:46:43;101190.00;;;31.40
19282;BMP180;9774;52.034;5.342;2023-06-19T13:49:10;101186.00;;;31.40
19282;BMP180;9774;52.034;5.342;2023-06-19T13:51:39;101182.00;;;31.40
19282;BMP180;9774;52.034;5.342;2023-06-19T13:54:07;101182.00;;;31.50
19282;BMP180;9774;52.034;5.342;2023-06-19T13:56:35;101195.00;;;31.70
19282;BMP180;9774;52.034;5.342;2023-06-19T13:59:03;101184.00;;;31.90
19282;BMP180;9774;52.034;5.342;2023-06-19T14:01:30;101185.00;;;32.10
19282;BMP180;9774;52.034;5.342;2023-06-19T14:03:59;101181.00;;;32.10
19282;BMP180;9774;52.034;5.342;2023-06-19T14:06:26;101186.00;;;32.00
19282;BMP180;9774;52.034;5.342;2023-06-19T14:08:55;101183.00;;;32.00
19282;BMP180;9774;52.034;5.342;2023-06-19T14:11:23;101188.00;;;31.90
19282;BMP180;9774;52.034;5.342;2023-06-19T14:13:50;101180.00;;;31.90
19282;BMP180;9774;52.034;5.342;2023-06-19T14:16:17;101181.00;;;31.90